sensor_id;sensor_type;location;lat;lon;timestamp;pressure;altitude;pressure_sealevel;temperature;humidity
3844;BME280;1937;51.444;6.484;2023-04-24T00:01:07;67730.59;;;11.35;84.72
3844;BME280;1937;51.444;6.484;2023-04-24T00:03:34;67724.63;;;11.36;85.48
3844;BME280;1937;51.444;6.484;2023-04-24T00:06:02;67709.53;;;11.28;84.62
3844;BME280;1937;51.444;6.484;2023-04-24T00:08:29;67702.19;;;11.19;85.30
3844;BME280;1937;51.444;6.484;2023-04-24T00:10:55;67666.16;;;11.08;85.64
3844;BME280;1937;51.444;6.484;2023-04-24T00:13:22;67719.81;;;11.12;85.75
3844;BME280;1937;51.444;6.484;2023-04-24T00:15:49;67726.22;;;11.18;85.97
3844;BME280;1937;51.444;6.484;2023-04-24T00:18:15;67680.66;;;11.16;85.28
3844;BME280;1937;51.444;6.484;2023-04-24T00:20:42;67717.81;;;11.13;84.81
3844;BME280;1937;51.444;6.484;2023-04-24T00:23:10;67686.53;;;11.10;85.26
3844;BME280;1937;51.444;6.484;2023-04-24T00:25:37;67711.00;;;11.16;85.60
3844;BME280;1937;51.444;6.484;2023-04-24T00:28:03;67709.00;;;11.16;84.90
3844;BME280;1937;51.444;6.484;2023-04-24T00:30:30;67698.94;;;11.14;85.68
3844;BME280;1937;51.444;6.484;2023-04-24T00:32:57;67686.31;;;11.12;84.59
3844;BME280;1937;51.444;6.484;2023-04-24T00:35:23;67693.69;;;11.09;85.00
3844;BME280;1937;51.444;6.484;2023-04-24T00:37:50;67666.00;;;10.99;85.51
3844;BME280;1937;51.444;6.484;2023-04-24T00:40:18;67677.56;;;11.04;85.31
3844;BME280;1937;51.444;6.484;2023-04-24T00:42:45;67691.34;;;11.07;85.13
3844;BME280;1937;51.444;6.484;2023-04-24T00:45:12;67613.31;;;10.98;85.04
3844;BME280;1937;51.444;6.484;2023-04-24T00:47:38;67669.28;;;10.93;85.37
3844;BME280;1937;51.444;6.484;2023-04-24T00:50:06;67637.50;;;10.79;85.63
3844;BME280;1937;51.444;6.484;2023-04-24T00:52:33;67632.72;;;10.81;85.51
3844;BME280;1937;51.444;6.484;2023-04-24T00:54:59;67573.47;;;10.65;85.54
3844;BME280;1937;51.444;6.484;2023-04-24T00:57:28;67620.22;;;10.73;85.08
3844;BME280;1937;51.444;6.484;2023-04-24T00:59:54;67601.97;;;10.75;85.64
3844;BME280;1937;51.444;6.484;2023-04-24T01:02:22;67610.31;;;10.64;85.46
3844;BME280;1937;51.444;6.484;2023-04-24T01:04:50;67591.72;;;10.63;85.65
3844;BME280;1937;51.444;6.484;2023-04-24T01:07:18;67569.03;;;10.59;85.69
3844;BME280;1937;51.444;6.484;2023-04-24T01:09:47;67619.44;;;10.63;85.42
3844;BME280;1937;51.444;6.484;2023-04-24T01:12:16;67623.06;;;10.71;85.16
3844;BME280;1937;51.444;6.484;2023-04-24T01:14:47;67564.03;;;10.53;85.32
3844;BME280;1937;51.444;6.484;2023-04-24T01:17:13;67565.25;;;10.70;86.27
3844;BME280;1937;51.444;6.484;2023-04-24T01:19:40;67640.94;;;10.77;85.04
3844;BME280;1937;51.444;6.484;2023-04-24T01:22:12;67578.13;;;10.70;84.85
3844;BME280;1937;51.444;6.484;2023-04-24T01:24:39;67650.81;;;10.59;85.08
3844;BME280;1937;51.444;6.484;2023-04-24T01:27:07;67595.94;;;10.60;85.21
3844;BME280;1937;51.444;6.484;2023-04-24T01:29:34;67550.34;;;10.54;85.38
3844;BME280;1937;51.444;6.484;2023-04-24T01:32:01;67584.28;;;10.50;86.12
3844;BME280;1937;51.444;6.484;2023-04-24T01:34:28;67601.34;;;10.58;85.46
3844;BME280;1937;51.444;6.484;2023-04-24T01:36:55;67556.13;;;10.44;85.49
3844;BME280;1937;51.444;6.484;2023-04-24T01:39:23;67568.59;;;10.52;85.96
3844;BME280;1937;51.444;6.484;2023-04-24T01:41:51;67594.88;;;10.64;85.18
3844;BME280;1937;51.444;6.484;2023-04-24T01:44:17;67640.97;;;10.66;85.07
3844;BME280;1937;51.444;6.484;2023-04-24T01:46:44;67572.59;;;10.51;85.33
3844;BME280;1937;51.444;6.484;2023-04-24T01:49:11;67556.25;;;10.64;85.73
3844;BME280;1937;51.444;6.484;2023-04-24T01:51:38;67597.84;;;10.55;85.42
3844;BME280;1937;51.444;6.484;2023-04-24T01:54:04;67551.66;;;10.49;85.79
3844;BME280;1937;51.444;6.484;2023-04-24T01:56:33;67614.06;;;10.65;85.80
3844;BME280;1937;51.444;6.484;2023-04-24T01:59:02;67605.63;;;10.71;84.95
3844;BME280;1937;51.444;6.484;2023-04-24T02:01:34;67601.03;;;10.72;85.68
3844;BME280;1937;51.444;6.484;2023-04-24T02:04:01;67579.94;;;10.60;85.71
3844;BME280;1937;51.444;6.484;2023-04-24T02:06:27;67589.88;;;10.57;86.07
3844;BME280;1937;51.444;6.484;2023-04-24T02:08:54;67568.75;;;10.46;86.66
3844;BME280;1937;51.444;6.484;2023-04-24T02:11:21;67564.63;;;10.53;87.08
3844;BME280;1937;51.444;6.484;2023-04-24T02:13:48;67595.25;;;10.55;86.09
3844;BME280;1937;51.444;6.484;2023-04-24T02:16:15;67550.34;;;10.54;86.42
3844;BME280;1937;51.444;6.484;2023-04-24T02:18:42;67611.09;;;10.47;85.92
3844;BME280;1937;51.444;6.484;2023-04-24T02:21:08;67544.44;;;10.45;86.54
3844;BME280;1937;51.444;6.484;2023-04-24T02:23:35;67628.63;;;10.51;86.95
3844;BME280;1937;51.444;6.484;2023-04-24T02:26:02;67564.03;;;10.53;87.11
3844;BME280;1937;51.444;6.484;2023-04-24T02:28:28;67565.94;;;10.48;86.79
3844;BME280;1937;51.444;6.484;2023-04-24T02:30:56;67532.28;;;10.39;87.01
3844;BME280;1937;51.444;6.484;2023-04-24T02:33:23;67577.28;;;10.44;87.29
3844;BME280;1937;51.444;6.484;2023-04-24T02:35:50;67571.31;;;10.46;86.80
3844;BME280;1937;51.444;6.484;2023-04-24T02:38:16;67596.91;;;10.52;87.23
3844;BME280;1937;51.444;6.484;2023-04-24T02:40:43;67602.66;;;10.53;86.71
3844;BME280;1937;51.444;6.484;2023-04-24T02:43:10;67572.16;;;10.44;87.25
3844;BME280;1937;51.444;6.484;2023-04-24T02:45:36;67597.19;;;10.39;87.41
3844;BME280;1937;51.444;6.484;2023-04-24T02:48:05;67567.81;;;10.43;87.40
3844;BME280;1937;51.444;6.484;2023-04-24T02:50:31;67574.00;;;10.50;87.21
3844;BME280;1937;51.444;6.484;2023-04-24T02:52:58;67591.19;;;10.52;87.65
3844;BME280;1937;51.444;6.484;2023-04-24T02:55:25;67604.81;;;10.61;86.50
3844;BME280;1937;51.444;6.484;2023-04-24T02:57:52;67618.88;;;10.62;87.02
3844;BME280;1937;51.444;6.484;2023-04-24T03:00:18;67580.06;;;10.53;87.18
3844;BME280;1937;51.444;6.484;2023-04-24T03:02:45;67542.00;;;10.38;86.94
3844;BME280;1937;51.444;6.484;2023-04-24T03:05:13;67547.16;;;10.38;87.20
3844;BME280;1937;51.444;6.484;2023-04-24T03:07:39;67563.44;;;10.37;87.79
3844;BME280;1937;51.444;6.484;2023-04-24T03:10:07;67515.69;;;10.38;87.27
3844;BME280;1937;51.444;6.484;2023-04-24T03:12:34;67540.34;;;10.41;87.54
3844;BME280;1937;51.444;6.484;2023-04-24T03:15:00;67577.72;;;10.51;87.32
3844;BME280;1937;51.444;6.484;2023-04-24T03:17:27;67552.72;;;10.45;86.90
3844;BME280;1937;51.444;6.484;2023-04-24T03:19:53;67585.00;;;10.44;87.83
3844;BME280;1937;51.444;6.484;2023-04-24T03:22:22;67573.47;;;10.39;87.17
3844;BME280;1937;51.444;6.484;2023-04-24T03:24:48;67563.97;;;10.48;86.90
3844;BME280;1937;51.444;6.484;2023-04-24T03:27:15;67570.16;;;10.45;86.82
3844;BME280;1937;51.444;6.484;2023-04-24T03:29:41;67562.53;;;10.49;86.32
3844;BME280;1937;51.444;6.484;2023-04-24T03:32:08;67559.91;;;10.60;86.81
3844;BME280;1937;51.444;6.484;2023-04-24T03:34:35;67586.47;;;10.59;86.85
3844;BME280;1937;51.444;6.484;2023-04-24T03:37:01;67587.78;;;10.53;86.35
3844;BME280;1937;51.444;6.484;2023-04-24T03:39:29;67581.56;;;10.57;86.28
3844;BME280;1937;51.444;6.484;2023-04-24T03:41:56;67544.66;;;10.43;86.98
3844;BME280;1937;51.444;6.484;2023-04-24T03:44:22;67567.50;;;10.40;86.71
3844;BME280;1937;51.444;6.484;2023-04-24T03:46:49;67553.28;;;10.30;87.20
3844;BME280;1937;51.444;6.484;2023-04-24T03:49:15;67524.03;;;10.27;87.65
3844;BME280;1937;51.444;6.484;2023-04-24T03:51:42;67556.00;;;10.23;86.58
3844;BME280;1937;51.444;6.484;2023-04-24T03:54:08;67571.47;;;10.39;87.12
3844;BME280;1937;51.444;6.484;2023-04-24T03:56:36;67574.50;;;10.46;87.21
3844;BME280;1937;51.444;6.484;2023-04-24T03:59:03;67586.13;;;10.56;86.13
3844;BME280;1937;51.444;6.484;2023-04-24T04:01:30;67594.09;;;10.54;86.08
3844;BME280;1937;51.444;6.484;2023-04-24T04:03:56;67579.44;;;10.64;85.89
3844;BME280;1937;51.444;6.484;2023-04-24T04:06:23;67556.91;;;10.53;85.79
3844;BME280;1937;51.444;6.484;2023-04-24T04:08:49;67568.25;;;10.50;86.17
3844;BME280;1937;51.444;6.484;2023-04-24T04:11:16;67550.88;;;10.39;86.47
3844;BME280;1937;51.444;6.484;2023-04-24T04:13:44;67588.84;;;10.50;86.02
3844;BME280;1937;51.444;6.484;2023-04-24T04:16:10;67548.06;;;10.41;85.46
3844;BME280;1937;51.444;6.484;2023-04-24T04:18:37;67555.94;;;10.35;86.17
3844;BME280;1937;51.444;6.484;2023-04-24T04:21:04;67556.84;;;10.38;86.36
3844;BME280;1937;51.444;6.484;2023-04-24T04:23:31;67541.84;;;10.45;85.45
3844;BME280;1937;51.444;6.484;2023-04-24T04:25:57;67539.09;;;10.36;86.06
3844;BME280;1937;51.444;6.484;2023-04-24T04:28:24;67508.28;;;10.24;86.50
3844;BME280;1937;51.444;6.484;2023-04-24T04:30:52;67494.63;;;10.15;86.88
3844;BME280;1937;51.444;6.484;2023-04-24T04:33:20;67518.13;;;10.17;86.98
3844;BME280;1937;51.444;6.484;2023-04-24T04:35:47;67493.22;;;10.16;86.67
3844;BME280;1937;51.444;6.484;2023-04-24T04:38:15;67510.59;;;10.26;86.40
3844;BME280;1937;51.444;6.484;2023-04-24T04:40:42;67538.66;;;10.29;85.66
3844;BME280;1937;51.444;6.484;2023-04-24T04:43:08;67546.81;;;10.36;85.96
3844;BME280;1937;51.444;6.484;2023-04-24T04:45:35;67501.63;;;10.21;85.73
3844;BME280;1937;51.444;6.484;2023-04-24T04:48:04;67503.88;;;10.18;86.35
3844;BME280;1937;51.444;6.484;2023-04-24T04:50:32;67534.47;;;10.20;85.70
3844;BME280;1937;51.444;6.484;2023-04-24T04:52:59;67492.41;;;10.17;86.13
3844;BME280;1937;51.444;6.484;2023-04-24T04:55:25;67478.53;;;10.10;85.78
3844;BME280;1937;51.444;6.484;2023-04-24T04:57:52;67494.59;;;9.99;86.49
3844;BME280;1937;51.444;6.484;2023-04-24T05:00:19;67480.91;;;10.01;86.37
3844;BME280;1937;51.444;6.484;2023-04-24T05:02:46;67464.78;;;9.96;87.09
3844;BME280;1937;51.444;6.484;2023-04-24T05:05:14;67454.91;;;9.87;87.25
3844;BME280;1937;51.444;6.484;2023-04-24T05:07:42;67474.97;;;9.91;87.31
3844;BME280;1937;51.444;6.484;2023-04-24T05:10:09;67482.47;;;9.93;87.43
3844;BME280;1937;51.444;6.484;2023-04-24T05:12:35;67467.03;;;9.93;87.49
3844;BME280;1937;51.444;6.484;2023-04-24T05:15:02;67476.59;;;9.99;87.49
3844;BME280;1937;51.444;6.484;2023-04-24T05:17:29;67499.06;;;9.94;87.97
3844;BME280;1937;51.444;6.484;2023-04-24T05:19:56;67503.13;;;9.98;87.82
3844;BME280;1937;51.444;6.484;2023-04-24T05:22:24;67506.47;;;10.07;88.11
3844;BME280;1937;51.444;6.484;2023-04-24T05:24:50;67516.28;;;10.11;87.75
3844;BME280;1937;51.444;6.484;2023-04-24T05:27:17;67511.22;;;10.16;87.74
3844;BME280;1937;51.444;6.484;2023-04-24T05:29:43;67525.78;;;10.02;87.92
3844;BME280;1937;51.444;6.484;2023-04-24T05:32:10;67483.13;;;9.98;89.10
3844;BME280;1937;51.444;6.484;2023-04-24T05:34:36;67510.00;;;9.99;90.56
3844;BME280;1937;51.444;6.484;2023-04-24T05:37:03;67481.25;;;9.76;92.32
3844;BME280;1937;51.444;6.484;2023-04-24T05:39:34;67494.84;;;9.70;94.04
3844;BME280;1937;51.444;6.484;2023-04-24T05:42:01;67470.22;;;9.56;95.53
3844;BME280;1937;51.444;6.484;2023-04-24T05:44:29;67497.00;;;9.52;96.01
3844;BME280;1937;51.444;6.484;2023-04-24T05:46:56;67468.88;;;9.45;97.31
3844;BME280;1937;51.444;6.484;2023-04-24T05:49:22;67488.13;;;9.51;97.69
3844;BME280;1937;51.444;6.484;2023-04-24T05:51:49;67488.91;;;9.23;99.82
3844;BME280;1937;51.444;6.484;2023-04-24T05:54:16;67465.22;;;9.22;100.00
3844;BME280;1937;51.444;6.484;2023-04-24T05:56:44;67538.28;;;9.34;100.00
3844;BME280;1937;51.444;6.484;2023-04-24T05:59:10;67570.97;;;9.29;100.00
3844;BME280;1937;51.444;6.484;2023-04-24T06:01:37;67573.84;;;9.43;100.00
3844;BME280;1937;51.444;6.484;2023-04-24T06:04:03;67541.66;;;9.33;100.00
3844;BME280;1937;51.444;6.484;2023-04-24T06:06:30;67527.34;;;9.18;100.00
3844;BME280;1937;51.444;6.484;2023-04-24T06:08:57;67531.44;;;9.11;100.00
3844;BME280;1937;51.444;6.484;2023-04-24T06:11:24;67573.09;;;9.22;100.00
3844;BME280;1937;51.444;6.484;2023-04-24T06:13:52;67515.22;;;9.01;100.00
3844;BME280;1937;51.444;6.484;2023-04-24T06:16:19;67544.72;;;9.18;100.00
3844;BME280;1937;51.444;6.484;2023-04-24T06:18:45;67541.91;;;9.20;100.00
3844;BME280;1937;51.444;6.484;2023-04-24T06:21:12;67521.97;;;9.09;100.00
3844;BME280;1937;51.444;6.484;2023-04-24T06:23:39;67525.81;;;9.15;100.00
3844;BME280;1937;51.444;6.484;2023-04-24T06:26:06;67544.59;;;9.13;100.00
3844;BME280;1937;51.444;6.484;2023-04-24T06:28:32;67552.56;;;9.11;100.00
3844;BME280;1937;51.444;6.484;2023-04-24T06:31:00;67552.56;;;9.11;100.00
3844;BME280;1937;51.444;6.484;2023-04-24T06:33:27;67494.09;;;9.12;100.00
3844;BME280;1937;51.444;6.484;2023-04-24T06:35:54;67538.75;;;9.19;100.00
3844;BME280;1937;51.444;6.484;2023-04-24T06:38:20;67572.59;;;9.26;100.00
3844;BME280;1937;51.444;6.484;2023-04-24T06:40:47;67550.78;;;9.21;100.00
3844;BME280;1937;51.444;6.484;2023-04-24T06:43:14;67609.25;;;9.31;100.00
3844;BME280;1937;51.444;6.484;2023-04-24T06:45:41;67600.41;;;9.30;100.00
3844;BME280;1937;51.444;6.484;2023-04-24T06:48:10;67570.72;;;9.31;100.00
3844;BME280;1937;51.444;6.484;2023-04-24T06:50:37;67483.81;;;9.12;100.00
3844;BME280;1937;51.444;6.484;2023-04-24T06:53:03;67564.78;;;9.22;100.00
3844;BME280;1937;51.444;6.484;2023-04-24T06:55:30;67556.03;;;9.25;100.00
3844;BME280;1937;51.444;6.484;2023-04-24T06:57:56;67571.31;;;9.32;100.00
3844;BME280;1937;51.444;6.484;2023-04-24T07:00:23;67588.97;;;9.29;100.00
3844;BME280;1937;51.444;6.484;2023-04-24T07:02:50;67537.63;;;9.07;100.00
3844;BME280;1937;51.444;6.484;2023-04-24T07:05:18;67484.66;;;8.99;100.00
3844;BME280;1937;51.444;6.484;2023-04-24T07:07:46;67526.69;;;8.80;100.00
3844;BME280;1937;51.444;6.484;2023-04-24T07:10:12;67555.97;;;8.87;100.00
3844;BME280;1937;51.444;6.484;2023-04-24T07:12:39;67511.88;;;8.80;100.00
3844;BME280;1937;51.444;6.484;2023-04-24T07:15:07;67508.38;;;8.77;100.00
3844;BME280;1937;51.444;6.484;2023-04-24T07:17:34;67532.41;;;8.80;100.00
3844;BME280;1937;51.444;6.484;2023-04-24T07:20:01;67515.25;;;8.79;100.00
3844;BME280;1937;51.444;6.484;2023-04-24T07:22:29;67496.25;;;8.71;100.00
3844;BME280;1937;51.444;6.484;2023-04-24T07:24:55;67507.09;;;8.60;100.00
3844;BME280;1937;51.444;6.484;2023-04-24T07:27:22;67514.22;;;8.60;100.00
3844;BME280;1937;51.444;6.484;2023-04-24T07:29:49;67526.13;;;8.68;100.00
3844;BME280;1937;51.444;6.484;2023-04-24T07:32:15;67513.66;;;8.59;100.00
3844;BME280;1937;51.444;6.484;2023-04-24T07:34:42;67513.19;;;8.63;100.00
3844;BME280;1937;51.444;6.484;2023-04-24T07:37:08;67576.25;;;8.67;100.00
3844;BME280;1937;51.444;6.484;2023-04-24T07:39:36;67539.31;;;8.59;100.00
3844;BME280;1937;51.444;6.484;2023-04-24T07:42:03;67521.69;;;8.51;100.00
3844;BME280;1937;51.444;6.484;2023-04-24T07:44:30;67585.34;;;8.66;100.00
3844;BME280;1937;51.444;6.484;2023-04-24T07:46:57;67572.41;;;8.73;100.00
3844;BME280;1937;51.444;6.484;2023-04-24T07:49:24;67544.19;;;8.61;100.00
3844;BME280;1937;51.444;6.484;2023-04-24T07:51:50;67574.75;;;8.63;100.00
3844;BME280;1937;51.444;6.484;2023-04-24T07:54:17;67551.19;;;8.56;100.00
3844;BME280;1937;51.444;6.484;2023-04-24T07:56:45;67584.22;;;8.65;100.00
3844;BME280;1937;51.444;6.484;2023-04-24T07:59:11;67573.34;;;8.65;100.00
3844;BME280;1937;51.444;6.484;2023-04-24T08:01:38;67590.25;;;8.79;100.00
3844;BME280;1937;51.444;6.484;2023-04-24T08:04:05;67604.25;;;8.69;100.00
3844;BME280;1937;51.444;6.484;2023-04-24T08:06:31;67605.06;;;8.68;100.00
3844;BME280;1937;51.444;6.484;2023-04-24T08:08:59;67657.56;;;8.80;100.00
3844;BME280;1937;51.444;6.484;2023-04-24T08:11:26;67671.25;;;8.89;100.00
3844;BME280;1937;51.444;6.484;2023-04-24T08:13:54;67704.28;;;8.98;100.00
3844;BME280;1937;51.444;6.484;2023-04-24T08:16:20;67691.91;;;8.94;100.00
3844;BME280;1937;51.444;6.484;2023-04-24T08:18:49;67657.00;;;8.90;100.00
3844;BME280;1937;51.444;6.484;2023-04-24T08:21:15;67717.81;;;9.14;100.00
3844;BME280;1937;51.444;6.484;2023-04-24T08:23:44;67706.63;;;9.22;100.00
3844;BME280;1937;51.444;6.484;2023-04-24T08:26:10;67742.13;;;9.37;100.00
3844;BME280;1937;51.444;6.484;2023-04-24T08:28:37;67755.22;;;9.35;100.00
3844;BME280;1937;51.444;6.484;2023-04-24T08:31:05;67704.66;;;9.12;100.00
3844;BME280;1937;51.444;6.484;2023-04-24T08:33:32;67670.44;;;9.02;100.00
3844;BME280;1937;51.444;6.484;2023-04-24T08:35:59;67692.50;;;9.06;100.00
3844;BME280;1937;51.444;6.484;2023-04-24T08:38:26;67714.66;;;9.02;100.00
3844;BME280;1937;51.444;6.484;2023-04-24T08:40:53;67680.94;;;8.89;100.00
3844;BME280;1937;51.444;6.484;2023-04-24T08:43:21;67710.91;;;8.90;100.00
3844;BME280;1937;51.444;6.484;2023-04-24T08:45:48;67681.84;;;8.81;100.00
3844;BME280;1937;51.444;6.484;2023-04-24T08:48:17;67690.84;;;8.86;100.00
3844;BME280;1937;51.444;6.484;2023-04-24T08:50:44;67716.81;;;8.78;100.00
3844;BME280;1937;51.444;6.484;2023-04-24T08:53:11;67613.81;;;8.53;100.00
3844;BME280;1937;51.444;6.484;2023-04-24T08:55:37;67661.50;;;8.56;100.00
3844;BME280;1937;51.444;6.484;2023-04-24T08:58:04;67654.28;;;8.52;100.00
3844;BME280;1937;51.444;6.484;2023-04-24T09:00:31;67643.91;;;8.48;100.00
3844;BME280;1937;51.444;6.484;2023-04-24T09:03:00;67682.53;;;8.63;100.00
3844;BME280;1937;51.444;6.484;2023-04-24T09:05:29;67691.38;;;8.65;100.00
3844;BME280;1937;51.444;6.484;2023-04-24T09:07:56;67669.31;;;8.61;100.00
3844;BME280;1937;51.444;6.484;2023-04-24T09:10:24;67705.03;;;8.74;100.00
3844;BME280;1937;51.444;6.484;2023-04-24T09:12:52;67674.81;;;8.63;100.00
3844;BME280;1937;51.444;6.484;2023-04-24T09:15:18;67687.06;;;8.63;100.00
3844;BME280;1937;51.444;6.484;2023-04-24T09:17:46;67632.09;;;8.44;100.00
3844;BME280;1937;51.444;6.484;2023-04-24T09:20:12;67660.31;;;8.44;100.00
3844;BME280;1937;51.444;6.484;2023-04-24T09:22:41;67682.59;;;8.46;100.00
3844;BME280;1937;51.444;6.484;2023-04-24T09:25:09;67699.66;;;8.54;100.00
3844;BME280;1937;51.444;6.484;2023-04-24T09:27:41;67712.25;;;8.67;100.00
3844;BME280;1937;51.444;6.484;2023-04-24T09:30:09;67744.16;;;8.86;100.00
3844;BME280;1937;51.444;6.484;2023-04-24T09:32:36;67773.59;;;8.98;100.00
3844;BME280;1937;51.444;6.484;2023-04-24T09:35:11;67746.47;;;8.77;100.00
3844;BME280;1937;51.444;6.484;2023-04-24T09:37:41;67723.59;;;8.75;100.00
3844;BME280;1937;51.444;6.484;2023-04-24T09:40:15;67776.94;;;8.85;100.00
3844;BME280;1937;51.444;6.484;2023-04-24T09:42:46;67772.38;;;8.86;100.00
3844;BME280;1937;51.444;6.484;2023-04-24T09:45:13;67773.34;;;8.89;100.00
3844;BME280;1937;51.444;6.484;2023-04-24T09:47:40;67772.97;;;8.86;100.00
3844;BME280;1937;51.444;6.484;2023-04-24T09:50:11;67792.94;;;8.97;100.00
3844;BME280;1937;51.444;6.484;2023-04-24T09:52:44;67797.41;;;9.03;100.00
3844;BME280;1937;51.444;6.484;2023-04-24T09:55:13;67816.81;;;9.13;100.00
3844;BME280;1937;51.444;6.484;2023-04-24T09:57:47;67824.09;;;9.28;100.00
3844;BME280;1937;51.444;6.484;2023-04-24T10:00:18;67812.09;;;9.38;100.00
3844;BME280;1937;51.444;6.484;2023-04-24T10:02:49;67826.19;;;9.32;100.00
3844;BME280;1937;51.444;6.484;2023-04-24T10:05:16;67810.47;;;9.41;100.00
3844;BME280;1937;51.444;6.484;2023-04-24T10:07:45;67824.84;;;9.56;100.00
3844;BME280;1937;51.444;6.484;2023-04-24T10:10:11;67845.16;;;9.47;100.00
3844;BME280;1937;51.444;6.484;2023-04-24T10:12:38;67811.03;;;9.30;100.00
3844;BME280;1937;51.444;6.484;2023-04-24T10:15:06;67787.66;;;9.32;100.00
3844;BME280;1937;51.444;6.484;2023-04-24T10:17:34;67805.53;;;9.39;100.00
3844;BME280;1937;51.444;6.484;2023-04-24T10:20:03;67795.16;;;9.34;100.00
3844;BME280;1937;51.444;6.484;2023-04-24T10:22:29;67812.75;;;9.21;100.00
3844;BME280;1937;51.444;6.484;2023-04-24T10:24:58;67838.34;;;9.38;100.00
3844;BME280;1937;51.444;6.484;2023-04-24T10:27:26;67819.00;;;9.62;100.00
3844;BME280;1937;51.444;6.484;2023-04-24T10:29:53;67822.75;;;9.63;100.00
3844;BME280;1937;51.444;6.484;2023-04-24T10:32:20;67819.00;;;9.62;100.00
3844;BME280;1937;51.444;6.484;2023-04-24T10:34:46;67801.28;;;9.71;100.00
3844;BME280;1937;51.444;6.484;2023-04-24T10:37:13;67890.16;;;10.14;100.00
3844;BME280;1937;51.444;6.484;2023-04-24T10:39:40;67893.91;;;10.15;100.00
3844;BME280;1937;51.444;6.484;2023-04-24T10:42:15;67981.34;;;10.55;99.61
3844;BME280;1937;51.444;6.484;2023-04-24T10:44:42;67915.81;;;10.54;98.45
3844;BME280;1937;51.444;6.484;2023-04-24T10:47:13;67983.13;;;10.68;99.48
3844;BME280;1937;51.444;6.484;2023-04-24T10:49:40;68002.47;;;10.96;99.99
3844;BME280;1937;51.444;6.484;2023-04-24T10:52:08;67986.19;;;10.86;98.85
3844;BME280;1937;51.444;6.484;2023-04-24T10:54:41;67858.38;;;10.34;96.78
3844;BME280;1937;51.444;6.484;2023-04-24T10:57:28;67829.38;;;10.40;96.20
3844;BME280;1937;51.444;6.484;2023-04-24T11:00:18;67806.22;;;10.17;94.94
3844;BME280;1937;51.444;6.484;2023-04-24T11:02:46;67749.63;;;9.84;95.83
3844;BME280;1937;51.444;6.484;2023-04-24T11:05:16;67669.47;;;9.77;94.86
3844;BME280;1937;51.444;6.484;2023-04-24T11:08:21;67648.44;;;9.81;91.58
3844;BME280;1937;51.444;6.484;2023-04-24T11:10:55;67630.81;;;9.72;90.72
3844;BME280;1937;51.444;6.484;2023-04-24T11:13:25;67607.81;;;9.66;90.81
3844;BME280;1937;51.444;6.484;2023-04-24T11:16:13;67633.13;;;9.85;90.64
3844;BME280;1937;51.444;6.484;2023-04-24T11:18:42;67704.94;;;10.25;90.54
3844;BME280;1937;51.444;6.484;2023-04-24T11:21:11;67700.50;;;10.31;89.50
3844;BME280;1937;51.444;6.484;2023-04-24T11:23:38;67693.00;;;10.40;87.58
3844;BME280;1937;51.444;6.484;2023-04-24T11:26:11;67719.88;;;10.52;87.72
3844;BME280;1937;51.444;6.484;2023-04-24T11:28:46;67791.94;;;11.12;86.36
3844;BME280;1937;51.444;6.484;2023-04-24T11:31:34;67808.34;;;11.42;84.10
3844;BME280;1937;51.444;6.484;2023-04-24T11:34:07;67832.56;;;11.49;82.63
3844;BME280;1937;51.444;6.484;2023-04-24T11:36:34;67829.47;;;11.65;80.31
3844;BME280;1937;51.444;6.484;2023-04-24T11:39:01;67762.66;;;11.47;80.05
3844;BME280;1937;51.444;6.484;2023-04-24T11:41:28;67709.16;;;11.36;79.99
3844;BME280;1937;51.444;6.484;2023-04-24T11:43:57;67635.16;;;11.03;77.75
3844;BME280;1937;51.444;6.484;2023-04-24T11:46:27;67686.50;;;11.21;78.88
3844;BME280;1937;51.444;6.484;2023-04-24T11:48:55;67653.06;;;11.10;78.74
3844;BME280;1937;51.444;6.484;2023-04-24T11:51:22;67585.94;;;10.74;79.03
3844;BME280;1937;51.444;6.484;2023-04-24T11:53:49;67532.56;;;10.52;77.88
3844;BME280;1937;51.444;6.484;2023-04-24T11:56:17;67540.47;;;10.61;78.74
3844;BME280;1937;51.444;6.484;2023-04-24T11:58:45;67595.72;;;10.78;79.96
3844;BME280;1937;51.444;6.484;2023-04-24T12:01:13;67595.34;;;10.87;80.60
3844;BME280;1937;51.444;6.484;2023-04-24T12:03:40;67658.03;;;11.01;79.87
3844;BME280;1937;51.444;6.484;2023-04-24T12:06:10;67635.16;;;11.03;79.29
3844;BME280;1937;51.444;6.484;2023-04-24T12:08:37;67562.09;;;10.85;77.74
3844;BME280;1937;51.444;6.484;2023-04-24T12:11:05;67603.44;;;11.05;75.23
3844;BME280;1937;51.444;6.484;2023-04-24T12:13:32;67586.91;;;11.08;75.07
3844;BME280;1937;51.444;6.484;2023-04-24T12:16:02;67580.25;;;11.05;75.91
3844;BME280;1937;51.444;6.484;2023-04-24T12:18:30;67668.59;;;11.41;76.05
3844;BME280;1937;51.444;6.484;2023-04-24T12:21:15;67695.41;;;11.65;76.40
3844;BME280;1937;51.444;6.484;2023-04-24T12:23:42;67680.41;;;11.61;74.70
3844;BME280;1937;51.444;6.484;2023-04-24T12:26:09;67652.56;;;11.57;73.97
3844;BME280;1937;51.444;6.484;2023-04-24T12:28:37;67585.69;;;11.19;74.26
3844;BME280;1937;51.444;6.484;2023-04-24T12:31:04;67583.25;;;11.12;74.86
3844;BME280;1937;51.444;6.484;2023-04-24T12:33:34;67603.41;;;11.47;74.67
3844;BME280;1937;51.444;6.484;2023-04-24T12:36:01;67629.44;;;11.45;72.38
3844;BME280;1937;51.444;6.484;2023-04-24T12:38:29;67595.81;;;11.25;73.73
3844;BME280;1937;51.444;6.484;2023-04-24T12:41:03;67643.31;;;11.53;74.29
3844;BME280;1937;51.444;6.484;2023-04-24T12:43:30;67566.47;;;11.18;71.97
3844;BME280;1937;51.444;6.484;2023-04-24T12:45:57;67557.00;;;11.16;72.89
3844;BME280;1937;51.444;6.484;2023-04-24T12:48:24;67536.78;;;11.07;73.56
3844;BME280;1937;51.444;6.484;2023-04-24T12:50:52;67531.75;;;11.12;73.54
3844;BME280;1937;51.444;6.484;2023-04-24T12:53:19;67464.19;;;10.64;75.03
3844;BME280;1937;51.444;6.484;2023-04-24T12:55:45;67489.19;;;10.86;75.52
3844;BME280;1937;51.444;6.484;2023-04-24T12:58:18;67528.22;;;10.93;74.79
3844;BME280;1937;51.444;6.484;2023-04-24T13:00:45;67535.78;;;10.84;75.29
3844;BME280;1937;51.444;6.484;2023-04-24T13:03:11;67583.50;;;11.10;75.19
3844;BME280;1937;51.444;6.484;2023-04-24T13:05:38;67513.75;;;10.85;74.54
3844;BME280;1937;51.444;6.484;2023-04-24T13:08:06;67579.09;;;11.20;74.47
3844;BME280;1937;51.444;6.484;2023-04-24T13:10:34;67546.94;;;11.45;74.47
3844;BME280;1937;51.444;6.484;2023-04-24T13:13:00;67587.69;;;11.49;74.37
3844;BME280;1937;51.444;6.484;2023-04-24T13:15:27;67621.63;;;11.57;73.56
3844;BME280;1937;51.444;6.484;2023-04-24T13:17:54;67562.50;;;11.34;73.22
3844;BME280;1937;51.444;6.484;2023-04-24T13:20:20;67598.16;;;11.43;72.94
3844;BME280;1937;51.444;6.484;2023-04-24T13:22:47;67639.09;;;11.72;73.14
3844;BME280;1937;51.444;6.484;2023-04-24T13:25:15;67592.00;;;11.51;73.71